sensor_id;sensor_type;location;lat;lon;timestamp;P1;durP1;ratioP1;P2;durP2;ratioP2
37483;SDS011;23337;52.212;9.926;2022-09-12T00:01:56;11.53;;;10.33;;
37483;SDS011;23337;52.212;9.926;2022-09-12T00:04:22;11.20;;;9.53;;
37483;SDS011;23337;52.212;9.926;2022-09-12T00:06:48;8.97;;;8.07;;
37483;SDS011;23337;52.212;9.926;2022-09-12T00:09:14;9.57;;;7.90;;
37483;SDS011;23337;52.212;9.926;2022-09-12T00:11:42;9.93;;;8.93;;
37483;SDS011;23337;52.212;9.926;2022-09-12T00:14:09;10.13;;;8.97;;
37483;SDS011;23337;52.212;9.926;2022-09-12T00:16:35;9.53;;;8.37;;
37483;SDS011;23337;52.212;9.926;2022-09-12T00:19:02;10.47;;;9.47;;
37483;SDS011;23337;52.212;9.926;2022-09-12T00:21:28;10.10;;;8.83;;
37483;SDS011;23337;52.212;9.926;2022-09-12T00:23:55;10.97;;;9.47;;
37483;SDS011;23337;52.212;9.926;2022-09-12T00:26:21;10.93;;;8.83;;
37483;SDS011;23337;52.212;9.926;2022-09-12T00:28:47;11.07;;;9.20;;
37483;SDS011;23337;52.212;9.926;2022-09-12T00:31:14;11.63;;;9.33;;
37483;SDS011;23337;52.212;9.926;2022-09-12T00:33:40;10.23;;;8.70;;
37483;SDS011;23337;52.212;9.926;2022-09-12T00:36:07;12.03;;;10.07;;
37483;SDS011;23337;52.212;9.926;2022-09-12T00:38:34;13.37;;;10.13;;
37483;SDS011;23337;52.212;9.926;2022-09-12T00:41:03;10.87;;;9.23;;
37483;SDS011;23337;52.212;9.926;2022-09-12T00:45:59;12.33;;;9.07;;
37483;SDS011;23337;52.212;9.926;2022-09-12T00:48:29;10.97;;;8.50;;
37483;SDS011;23337;52.212;9.926;2022-09-12T00:50:56;9.37;;;8.40;;
37483;SDS011;23337;52.212;9.926;2022-09-12T00:53:22;9.67;;;8.67;;
37483;SDS011;23337;52.212;9.926;2022-09-12T00:55:49;9.80;;;8.70;;
37483;SDS011;23337;52.212;9.926;2022-09-12T00:58:16;9.87;;;8.00;;
37483;SDS011;23337;52.212;9.926;2022-09-12T01:00:43;11.87;;;10.57;;
37483;SDS011;23337;52.212;9.926;2022-09-12T01:03:10;11.40;;;9.83;;
37483;SDS011;23337;52.212;9.926;2022-09-12T01:05:39;10.60;;;9.30;;
37483;SDS011;23337;52.212;9.926;2022-09-12T01:08:08;8.93;;;7.47;;
37483;SDS011;23337;52.212;9.926;2022-09-12T01:10:34;6.70;;;6.07;;
37483;SDS011;23337;52.212;9.926;2022-09-12T01:13:02;6.17;;;5.57;;
37483;SDS011;23337;52.212;9.926;2022-09-12T01:15:28;7.37;;;6.57;;
37483;SDS011;23337;52.212;9.926;2022-09-12T01:23:37;7.77;;;6.43;;
37483;SDS011;23337;52.212;9.926;2022-09-12T01:28:48;11.33;;;9.00;;
37483;SDS011;23337;52.212;9.926;2022-09-12T01:34:04;9.13;;;8.20;;
37483;SDS011;23337;52.212;9.926;2022-09-12T01:36:35;10.03;;;7.97;;
37483;SDS011;23337;52.212;9.926;2022-09-12T01:39:07;9.03;;;8.13;;
37483;SDS011;23337;52.212;9.926;2022-09-12T01:41:41;9.43;;;8.43;;
37483;SDS011;23337;52.212;9.926;2022-09-12T01:44:12;11.33;;;8.80;;
37483;SDS011;23337;52.212;9.926;2022-09-12T01:49:22;11.53;;;8.57;;
37483;SDS011;23337;52.212;9.926;2022-09-12T01:51:54;11.40;;;9.80;;
37483;SDS011;23337;52.212;9.926;2022-09-12T01:54:28;11.67;;;10.20;;
37483;SDS011;23337;52.212;9.926;2022-09-12T01:56:56;10.97;;;9.10;;
37483;SDS011;23337;52.212;9.926;2022-09-12T01:59:24;11.87;;;9.10;;
37483;SDS011;23337;52.212;9.926;2022-09-12T02:01:52;10.03;;;8.97;;
37483;SDS011;23337;52.212;9.926;2022-09-12T02:04:22;9.83;;;8.57;;
37483;SDS011;23337;52.212;9.926;2022-09-12T02:06:54;11.43;;;9.33;;
37483;SDS011;23337;52.212;9.926;2022-09-12T02:09:23;12.70;;;8.90;;
37483;SDS011;23337;52.212;9.926;2022-09-12T02:11:51;10.80;;;9.23;;
37483;SDS011;23337;52.212;9.926;2022-09-12T02:14:28;10.03;;;9.03;;
37483;SDS011;23337;52.212;9.926;2022-09-12T02:19:54;9.77;;;8.77;;
37483;SDS011;23337;52.212;9.926;2022-09-12T02:22:22;9.10;;;7.50;;
37483;SDS011;23337;52.212;9.926;2022-09-12T02:24:51;9.00;;;8.03;;
37483;SDS011;23337;52.212;9.926;2022-09-12T02:27:39;10.23;;;8.13;;
37483;SDS011;23337;52.212;9.926;2022-09-12T02:30:06;9.60;;;8.60;;
37483;SDS011;23337;52.212;9.926;2022-09-12T02:32:37;9.97;;;8.97;;
37483;SDS011;23337;52.212;9.926;2022-09-12T02:37:48;10.97;;;8.20;;
37483;SDS011;23337;52.212;9.926;2022-09-12T02:40:16;10.50;;;8.80;;
37483;SDS011;23337;52.212;9.926;2022-09-12T02:42:42;8.93;;;8.07;;
37483;SDS011;23337;52.212;9.926;2022-09-12T02:45:08;9.03;;;7.57;;
37483;SDS011;23337;52.212;9.926;2022-09-12T02:47:37;10.03;;;7.67;;
37483;SDS011;23337;52.212;9.926;2022-09-12T02:50:04;8.43;;;7.57;;
37483;SDS011;23337;52.212;9.926;2022-09-12T02:52:32;9.30;;;8.20;;
37483;SDS011;23337;52.212;9.926;2022-09-12T02:54:58;10.00;;;9.07;;
37483;SDS011;23337;52.212;9.926;2022-09-12T02:57:24;11.23;;;9.53;;
37483;SDS011;23337;52.212;9.926;2022-09-12T02:59:51;11.30;;;10.07;;
37483;SDS011;23337;52.212;9.926;2022-09-12T03:15:55;10.90;;;9.60;;
37483;SDS011;23337;52.212;9.926;2022-09-12T03:26:38;8.17;;;7.30;;
37483;SDS011;23337;52.212;9.926;2022-09-12T03:29:05;10.00;;;7.77;;
37483;SDS011;23337;52.212;9.926;2022-09-12T03:31:32;9.23;;;8.23;;
37483;SDS011;23337;52.212;9.926;2022-09-12T03:33:58;8.00;;;7.13;;
37483;SDS011;23337;52.212;9.926;2022-09-12T03:36:26;10.00;;;7.73;;
37483;SDS011;23337;52.212;9.926;2022-09-12T03:38:52;8.83;;;7.13;;
37483;SDS011;23337;52.212;9.926;2022-09-12T03:41:18;8.73;;;7.90;;
37483;SDS011;23337;52.212;9.926;2022-09-12T03:43:44;9.57;;;7.23;;
37483;SDS011;23337;52.212;9.926;2022-09-12T03:46:10;11.10;;;6.90;;
37483;SDS011;23337;52.212;9.926;2022-09-12T03:48:37;7.57;;;6.50;;
37483;SDS011;23337;52.212;9.926;2022-09-12T03:51:04;8.17;;;7.23;;
37483;SDS011;23337;52.212;9.926;2022-09-12T03:53:31;8.77;;;7.67;;
37483;SDS011;23337;52.212;9.926;2022-09-12T03:55:57;6.93;;;6.23;;
37483;SDS011;23337;52.212;9.926;2022-09-12T03:58:23;7.77;;;6.90;;
37483;SDS011;23337;52.212;9.926;2022-09-12T04:00:49;7.43;;;6.73;;
37483;SDS011;23337;52.212;9.926;2022-09-12T04:03:15;7.50;;;6.43;;
37483;SDS011;23337;52.212;9.926;2022-09-12T04:05:43;9.43;;;7.50;;
37483;SDS011;23337;52.212;9.926;2022-09-12T04:08:10;9.73;;;8.30;;
37483;SDS011;23337;52.212;9.926;2022-09-12T04:10:36;11.20;;;8.80;;
37483;SDS011;23337;52.212;9.926;2022-09-12T04:13:02;12.20;;;9.30;;
37483;SDS011;23337;52.212;9.926;2022-09-12T04:15:27;9.77;;;7.73;;
37483;SDS011;23337;52.212;9.926;2022-09-12T04:17:53;9.43;;;8.37;;
37483;SDS011;23337;52.212;9.926;2022-09-12T04:20:19;10.80;;;8.60;;
37483;SDS011;23337;52.212;9.926;2022-09-12T04:22:45;10.60;;;9.37;;
37483;SDS011;23337;52.212;9.926;2022-09-12T04:25:11;8.93;;;8.03;;
37483;SDS011;23337;52.212;9.926;2022-09-12T04:27:38;9.77;;;8.27;;
37483;SDS011;23337;52.212;9.926;2022-09-12T04:30:04;8.93;;;7.93;;
37483;SDS011;23337;52.212;9.926;2022-09-12T04:32:30;9.80;;;8.80;;
37483;SDS011;23337;52.212;9.926;2022-09-12T04:34:56;9.37;;;8.17;;
37483;SDS011;23337;52.212;9.926;2022-09-12T04:37:22;12.00;;;8.83;;
37483;SDS011;23337;52.212;9.926;2022-09-12T04:39:48;10.07;;;8.53;;
37483;SDS011;23337;52.212;9.926;2022-09-12T04:42:15;12.37;;;9.70;;
37483;SDS011;23337;52.212;9.926;2022-09-12T04:44:41;10.60;;;9.37;;
37483;SDS011;23337;52.212;9.926;2022-09-12T04:47:07;9.90;;;8.43;;
37483;SDS011;23337;52.212;9.926;2022-09-12T04:49:34;9.37;;;8.37;;
37483;SDS011;23337;52.212;9.926;2022-09-12T04:52:00;11.00;;;7.97;;
37483;SDS011;23337;52.212;9.926;2022-09-12T04:54:26;10.57;;;8.53;;
37483;SDS011;23337;52.212;9.926;2022-09-12T04:56:52;10.20;;;8.63;;
37483;SDS011;23337;52.212;9.926;2022-09-12T04:59:19;9.60;;;8.70;;
37483;SDS011;23337;52.212;9.926;2022-09-12T05:01:46;9.87;;;8.47;;
37483;SDS011;23337;52.212;9.926;2022-09-12T05:04:12;7.90;;;7.03;;
37483;SDS011;23337;52.212;9.926;2022-09-12T05:06:39;5.20;;;4.70;;
37483;SDS011;23337;52.212;9.926;2022-09-12T05:09:05;7.03;;;6.07;;
37483;SDS011;23337;52.212;9.926;2022-09-12T05:11:33;12.63;;;9.33;;
37483;SDS011;23337;52.212;9.926;2022-09-12T05:14:00;11.10;;;9.37;;
37483;SDS011;23337;52.212;9.926;2022-09-12T05:16:28;10.43;;;8.33;;
37483;SDS011;23337;52.212;9.926;2022-09-12T05:18:55;11.93;;;8.60;;
37483;SDS011;23337;52.212;9.926;2022-09-12T05:21:22;11.40;;;9.97;;
37483;SDS011;23337;52.212;9.926;2022-09-12T05:23:51;14.00;;;11.80;;
37483;SDS011;23337;52.212;9.926;2022-09-12T05:26:18;12.23;;;10.93;;
37483;SDS011;23337;52.212;9.926;2022-09-12T05:28:45;13.07;;;10.67;;
37483;SDS011;23337;52.212;9.926;2022-09-12T05:31:11;12.10;;;10.73;;
37483;SDS011;23337;52.212;9.926;2022-09-12T05:33:39;12.23;;;9.67;;
37483;SDS011;23337;52.212;9.926;2022-09-12T05:36:06;11.73;;;9.90;;
37483;SDS011;23337;52.212;9.926;2022-09-12T05:38:35;12.33;;;10.63;;
37483;SDS011;23337;52.212;9.926;2022-09-12T05:41:18;11.03;;;9.13;;
37483;SDS011;23337;52.212;9.926;2022-09-12T05:43:44;12.83;;;10.20;;
37483;SDS011;23337;52.212;9.926;2022-09-12T05:48:37;15.80;;;9.87;;
37483;SDS011;23337;52.212;9.926;2022-09-12T05:51:05;11.47;;;9.93;;
37483;SDS011;23337;52.212;9.926;2022-09-12T05:53:33;15.00;;;9.57;;
37483;SDS011;23337;52.212;9.926;2022-09-12T05:58:31;12.43;;;9.73;;
37483;SDS011;23337;52.212;9.926;2022-09-12T06:01:02;10.97;;;9.73;;
37483;SDS011;23337;52.212;9.926;2022-09-12T06:03:28;11.43;;;10.23;;
37483;SDS011;23337;52.212;9.926;2022-09-12T06:05:54;15.70;;;10.77;;
37483;SDS011;23337;52.212;9.926;2022-09-12T06:08:20;13.90;;;10.83;;
37483;SDS011;23337;52.212;9.926;2022-09-12T06:10:46;14.13;;;11.60;;
37483;SDS011;23337;52.212;9.926;2022-09-12T06:13:13;16.03;;;12.67;;
37483;SDS011;23337;52.212;9.926;2022-09-12T06:15:39;14.83;;;11.43;;
37483;SDS011;23337;52.212;9.926;2022-09-12T06:18:05;15.63;;;12.27;;
37483;SDS011;23337;52.212;9.926;2022-09-12T06:20:31;16.80;;;12.57;;
37483;SDS011;23337;52.212;9.926;2022-09-12T06:22:57;16.47;;;13.30;;
37483;SDS011;23337;52.212;9.926;2022-09-12T06:25:23;16.13;;;12.17;;
37483;SDS011;23337;52.212;9.926;2022-09-12T06:27:50;15.27;;;12.37;;
37483;SDS011;23337;52.212;9.926;2022-09-12T06:30:16;15.00;;;12.10;;
37483;SDS011;23337;52.212;9.926;2022-09-12T06:32:42;16.30;;;12.53;;
37483;SDS011;23337;52.212;9.926;2022-09-12T06:35:08;15.07;;;12.83;;
37483;SDS011;23337;52.212;9.926;2022-09-12T06:37:34;14.40;;;12.67;;
37483;SDS011;23337;52.212;9.926;2022-09-12T06:40:00;16.03;;;12.63;;
37483;SDS011;23337;52.212;9.926;2022-09-12T06:42:26;16.40;;;12.80;;
37483;SDS011;23337;52.212;9.926;2022-09-12T06:44:52;14.63;;;13.03;;
37483;SDS011;23337;52.212;9.926;2022-09-12T06:47:18;14.87;;;13.00;;
37483;SDS011;23337;52.212;9.926;2022-09-12T06:49:45;13.80;;;12.03;;
37483;SDS011;23337;52.212;9.926;2022-09-12T06:52:11;14.37;;;12.20;;
37483;SDS011;23337;52.212;9.926;2022-09-12T06:54:36;14.50;;;12.47;;
37483;SDS011;23337;52.212;9.926;2022-09-12T06:57:02;16.37;;;11.97;;
37483;SDS011;23337;52.212;9.926;2022-09-12T06:59:28;18.90;;;12.70;;
37483;SDS011;23337;52.212;9.926;2022-09-12T07:01:54;17.40;;;12.37;;
37483;SDS011;23337;52.212;9.926;2022-09-12T07:04:20;16.40;;;13.17;;
37483;SDS011;23337;52.212;9.926;2022-09-12T07:06:46;18.07;;;13.23;;
37483;SDS011;23337;52.212;9.926;2022-09-12T07:09:13;17.60;;;13.40;;
37483;SDS011;23337;52.212;9.926;2022-09-12T07:11:42;20.60;;;14.37;;
37483;SDS011;23337;52.212;9.926;2022-09-12T07:14:09;20.63;;;15.23;;
37483;SDS011;23337;52.212;9.926;2022-09-12T07:16:36;18.53;;;13.97;;
37483;SDS011;23337;52.212;9.926;2022-09-12T07:19:02;20.40;;;14.77;;
37483;SDS011;23337;52.212;9.926;2022-09-12T07:21:29;25.03;;;14.33;;
37483;SDS011;23337;52.212;9.926;2022-09-12T07:23:55;18.87;;;13.30;;
37483;SDS011;23337;52.212;9.926;2022-09-12T07:26:22;16.43;;;13.70;;
37483;SDS011;23337;52.212;9.926;2022-09-12T07:28:51;14.47;;;12.13;;
37483;SDS011;23337;52.212;9.926;2022-09-12T07:31:19;14.17;;;11.77;;
37483;SDS011;23337;52.212;9.926;2022-09-12T07:33:45;15.40;;;12.40;;
37483;SDS011;23337;52.212;9.926;2022-09-12T07:36:12;15.30;;;12.10;;
37483;SDS011;23337;52.212;9.926;2022-09-12T07:38:38;16.80;;;12.37;;
37483;SDS011;23337;52.212;9.926;2022-09-12T07:41:15;19.57;;;14.53;;
37483;SDS011;23337;52.212;9.926;2022-09-12T07:43:41;15.13;;;12.83;;
37483;SDS011;23337;52.212;9.926;2022-09-12T07:46:07;16.87;;;11.90;;
37483;SDS011;23337;52.212;9.926;2022-09-12T07:48:34;16.30;;;11.03;;
37483;SDS011;23337;52.212;9.926;2022-09-12T07:51:00;13.43;;;11.20;;
37483;SDS011;23337;52.212;9.926;2022-09-12T07:53:31;13.33;;;10.67;;
37483;SDS011;23337;52.212;9.926;2022-09-12T07:55:58;15.93;;;11.80;;
37483;SDS011;23337;52.212;9.926;2022-09-12T07:58:24;12.70;;;9.90;;
37483;SDS011;23337;52.212;9.926;2022-09-12T08:00:50;18.27;;;11.17;;
37483;SDS011;23337;52.212;9.926;2022-09-12T08:03:16;14.53;;;10.50;;
37483;SDS011;23337;52.212;9.926;2022-09-12T08:05:43;13.07;;;10.60;;
37483;SDS011;23337;52.212;9.926;2022-09-12T08:08:09;11.60;;;10.30;;
37483;SDS011;23337;52.212;9.926;2022-09-12T08:10:35;12.47;;;9.73;;
37483;SDS011;23337;52.212;9.926;2022-09-12T08:13:01;13.10;;;9.90;;
37483;SDS011;23337;52.212;9.926;2022-09-12T08:15:27;11.17;;;8.90;;
37483;SDS011;23337;52.212;9.926;2022-09-12T08:17:53;10.57;;;9.13;;
37483;SDS011;23337;52.212;9.926;2022-09-12T08:20:19;13.80;;;9.80;;
37483;SDS011;23337;52.212;9.926;2022-09-12T08:22:45;9.03;;;7.10;;
37483;SDS011;23337;52.212;9.926;2022-09-12T08:25:11;8.10;;;7.10;;
37483;SDS011;23337;52.212;9.926;2022-09-12T08:27:37;12.20;;;9.67;;
37483;SDS011;23337;52.212;9.926;2022-09-12T08:30:04;9.90;;;8.33;;
37483;SDS011;23337;52.212;9.926;2022-09-12T08:32:30;12.53;;;8.60;;
37483;SDS011;23337;52.212;9.926;2022-09-12T08:34:56;10.03;;;7.33;;
37483;SDS011;23337;52.212;9.926;2022-09-12T08:37:22;8.30;;;7.50;;
37483;SDS011;23337;52.212;9.926;2022-09-12T08:39:48;7.70;;;6.90;;
37483;SDS011;23337;52.212;9.926;2022-09-12T08:42:20;8.83;;;6.87;;
37483;SDS011;23337;52.212;9.926;2022-09-12T08:45:01;10.03;;;7.17;;
37483;SDS011;23337;52.212;9.926;2022-09-12T08:54:49;7.77;;;6.80;;
37483;SDS011;23337;52.212;9.926;2022-09-12T08:57:15;9.10;;;6.97;;
37483;SDS011;23337;52.212;9.926;2022-09-12T08:59:43;8.80;;;6.20;;
37483;SDS011;23337;52.212;9.926;2022-09-12T09:04:55;6.43;;;5.67;;
37483;SDS011;23337;52.212;9.926;2022-09-12T09:12:22;8.30;;;5.50;;
37483;SDS011;23337;52.212;9.926;2022-09-12T09:19:48;5.83;;;4.60;;
37483;SDS011;23337;52.212;9.926;2022-09-12T09:22:17;5.40;;;4.90;;
37483;SDS011;23337;52.212;9.926;2022-09-12T09:24:52;6.27;;;4.70;;
37483;SDS011;23337;52.212;9.926;2022-09-12T09:27:26;3.90;;;3.20;;
37483;SDS011;23337;52.212;9.926;2022-09-12T09:29:54;3.73;;;2.70;;
37483;SDS011;23337;52.212;9.926;2022-09-12T09:34:49;4.50;;;3.43;;
37483;SDS011;23337;52.212;9.926;2022-09-12T09:40:04;4.07;;;3.00;;
37483;SDS011;23337;52.212;9.926;2022-09-12T09:45:11;7.13;;;3.13;;
37483;SDS011;23337;52.212;9.926;2022-09-12T09:47:38;3.60;;;3.20;;
37483;SDS011;23337;52.212;9.926;2022-09-12T09:50:04;3.67;;;3.03;;
37483;SDS011;23337;52.212;9.926;2022-09-12T09:52:30;4.10;;;2.80;;
37483;SDS011;23337;52.212;9.926;2022-09-12T09:54:58;6.43;;;3.10;;
37483;SDS011;23337;52.212;9.926;2022-09-12T10:05:23;2.30;;;2.10;;
37483;SDS011;23337;52.212;9.926;2022-09-12T10:07:49;3.90;;;2.37;;
37483;SDS011;23337;52.212;9.926;2022-09-12T10:10:17;2.87;;;2.57;;
37483;SDS011;23337;52.212;9.926;2022-09-12T10:12:43;3.73;;;2.43;;
37483;SDS011;23337;52.212;9.926;2022-09-12T10:17:43;2.70;;;2.30;;
37483;SDS011;23337;52.212;9.926;2022-09-12T10:22:54;3.00;;;2.73;;
37483;SDS011;23337;52.212;9.926;2022-09-12T10:25:21;2.83;;;2.10;;
37483;SDS011;23337;52.212;9.926;2022-09-12T10:27:51;4.23;;;2.23;;
37483;SDS011;23337;52.212;9.926;2022-09-12T10:30:18;2.87;;;1.67;;
37483;SDS011;23337;52.212;9.926;2022-09-12T10:32:47;2.20;;;2.03;;
37483;SDS011;23337;52.212;9.926;2022-09-12T10:35:27;3.10;;;2.30;;
37483;SDS011;23337;52.212;9.926;2022-09-12T10:38:04;2.17;;;1.87;;
37483;SDS011;23337;52.212;9.926;2022-09-12T10:43:00;2.70;;;2.50;;
37483;SDS011;23337;52.212;9.926;2022-09-12T10:45:34;2.53;;;2.30;;
37483;SDS011;23337;52.212;9.926;2022-09-12T10:48:01;2.83;;;2.30;;
37483;SDS011;23337;52.212;9.926;2022-09-12T10:50:33;1.83;;;1.73;;
37483;SDS011;23337;52.212;9.926;2022-09-12T10:53:11;1.90;;;1.80;;
37483;SDS011;23337;52.212;9.926;2022-09-12T10:55:37;2.90;;;1.80;;
37483;SDS011;23337;52.212;9.926;2022-09-12T10:58:26;2.80;;;2.03;;
37483;SDS011;23337;52.212;9.926;2022-09-12T11:01:03;2.47;;;2.07;;
37483;SDS011;23337;52.212;9.926;2022-09-12T11:03:39;2.67;;;1.83;;
37483;SDS011;23337;52.212;9.926;2022-09-12T11:06:09;2.53;;;1.80;;
37483;SDS011;23337;52.212;9.926;2022-09-12T11:08:47;2.03;;;1.83;;
37483;SDS011;23337;52.212;9.926;2022-09-12T11:19:24;2.83;;;1.57;;
37483;SDS011;23337;52.212;9.926;2022-09-12T11:27:20;3.03;;;1.93;;
37483;SDS011;23337;52.212;9.926;2022-09-12T11:40:00;2.00;;;1.80;;
37483;SDS011;23337;52.212;9.926;2022-09-12T11:42:30;2.37;;;1.90;;
37483;SDS011;23337;52.212;9.926;2022-09-12T11:45:00;1.97;;;1.77;;
37483;SDS011;23337;52.212;9.926;2022-09-12T11:47:28;2.23;;;1.60;;
37483;SDS011;23337;52.212;9.926;2022-09-12T11:49:55;2.10;;;1.73;;
37483;SDS011;23337;52.212;9.926;2022-09-12T11:52:22;1.43;;;1.33;;
37483;SDS011;23337;52.212;9.926;2022-09-12T11:54:49;1.83;;;1.40;;
37483;SDS011;23337;52.212;9.926;2022-09-12T11:57:24;1.70;;;1.40;;
37483;SDS011;23337;52.212;9.926;2022-09-12T12:00:03;2.97;;;1.63;;
37483;SDS011;23337;52.212;9.926;2022-09-12T12:02:35;2.17;;;1.40;;
37483;SDS011;23337;52.212;9.926;2022-09-12T12:05:15;2.10;;;1.33;;
37483;SDS011;23337;52.212;9.926;2022-09-12T12:07:54;1.43;;;1.33;;
37483;SDS011;23337;52.212;9.926;2022-09-12T12:12:55;1.20;;;1.10;;
37483;SDS011;23337;52.212;9.926;2022-09-12T12:15:22;1.90;;;1.20;;
37483;SDS011;23337;52.212;9.926;2022-09-12T12:20:27;1.57;;;0.97;;
37483;SDS011;23337;52.212;9.926;2022-09-12T12:22:53;1.70;;;1.30;;
37483;SDS011;23337;52.212;9.926;2022-09-12T12:25:39;2.83;;;1.40;;
37483;SDS011;23337;52.212;9.926;2022-09-12T12:28:06;2.03;;;1.90;;
37483;SDS011;23337;52.212;9.926;2022-09-12T12:33:01;3.37;;;1.53;;
37483;SDS011;23337;52.212;9.926;2022-09-12T12:38:01;1.53;;;1.13;;
37483;SDS011;23337;52.212;9.926;2022-09-12T12:40:27;2.33;;;1.40;;
37483;SDS011;23337;52.212;9.926;2022-09-12T12:43:00;2.30;;;1.50;;
37483;SDS011;23337;52.212;9.926;2022-09-12T12:50:22;1.20;;;0.93;;
37483;SDS011;23337;52.212;9.926;2022-09-12T12:55:25;1.77;;;1.67;;
37483;SDS011;23337;52.212;9.926;2022-09-12T12:57:54;1.83;;;1.20;;
37483;SDS011;23337;52.212;9.926;2022-09-12T13:05:23;1.50;;;0.93;;
37483;SDS011;23337;52.212;9.926;2022-09-12T13:08:01;1.13;;;1.07;;
37483;SDS011;23337;52.212;9.926;2022-09-12T13:10:28;1.40;;;1.27;;
37483;SDS011;23337;52.212;9.926;2022-09-12T13:12:56;2.53;;;1.10;;
37483;SDS011;23337;52.212;9.926;2022-09-12T13:18:11;1.43;;;1.30;;
37483;SDS011;23337;52.212;9.926;2022-09-12T13:20:46;3.90;;;1.67;;
37483;SDS011;23337;52.212;9.926;2022-09-12T13:23:22;3.53;;;1.43;;
37483;SDS011;23337;52.212;9.926;2022-09-12T13:25:55;0.93;;;0.80;;
37483;SDS011;23337;52.212;9.926;2022-09-12T13:28:22;1.90;;;1.10;;
37483;SDS011;23337;52.212;9.926;2022-09-12T13:30:58;1.33;;;1.17;;
37483;SDS011;23337;52.212;9.926;2022-09-12T13:41:16;1.87;;;1.20;;
37483;SDS011;23337;52.212;9.926;2022-09-12T13:43:44;1.03;;;1.03;;
37483;SDS011;23337;52.212;9.926;2022-09-12T13:46:12;2.13;;;0.90;;
37483;SDS011;23337;52.212;9.926;2022-09-12T13:48:40;1.57;;;1.10;;
37483;SDS011;23337;52.212;9.926;2022-09-12T13:51:06;1.67;;;1.27;;
37483;SDS011;23337;52.212;9.926;2022-09-12T13:53:41;1.10;;;1.00;;
37483;SDS011;23337;52.212;9.926;2022-09-12T13:56:08;1.17;;;0.90;;
37483;SDS011;23337;52.212;9.926;2022-09-12T13:58:49;1.30;;;1.20;;
37483;SDS011;23337;52.212;9.926;2022-09-12T14:01:15;1.63;;;1.00;;
37483;SDS011;23337;52.212;9.926;2022-09-12T14:03:54;1.50;;;0.80;;
37483;SDS011;23337;52.212;9.926;2022-09-12T14:06:44;2.37;;;1.23;;
37483;SDS011;23337;52.212;9.926;2022-09-12T14:09:14;1.50;;;1.30;;
37483;SDS011;23337;52.212;9.926;2022-09-12T14:11:41;1.40;;;1.30;;
37483;SDS011;23337;52.212;9.926;2022-09-12T14:14:13;1.63;;;0.73;;
37483;SDS011;23337;52.212;9.926;2022-09-12T14:16:41;1.10;;;0.93;;
37483;SDS011;23337;52.212;9.926;2022-09-12T14:19:08;1.90;;;1.10;;
37483;SDS011;23337;52.212;9.926;2022-09-12T14:21:36;1.20;;;1.10;;
37483;SDS011;23337;52.212;9.926;2022-09-12T14:24:03;1.87;;;1.00;;
37483;SDS011;23337;52.212;9.926;2022-09-12T14:26:32;1.60;;;1.30;;
37483;SDS011;23337;52.212;9.926;2022-09-12T14:28:58;2.17;;;1.10;;
37483;SDS011;23337;52.212;9.926;2022-09-12T14:31:31;2.10;;;0.97;;
37483;SDS011;23337;52.212;9.926;2022-09-12T14:36:34;1.83;;;1.00;;
37483;SDS011;23337;52.212;9.926;2022-09-12T14:39:02;1.80;;;1.20;;
37483;SDS011;23337;52.212;9.926;2022-09-12T14:41:30;1.30;;;1.10;;
37483;SDS011;23337;52.212;9.926;2022-09-12T14:43:58;2.97;;;1.10;;
37483;SDS011;23337;52.212;9.926;2022-09-12T14:46:32;2.70;;;1.30;;
37483;SDS011;23337;52.212;9.926;2022-09-12T14:48:59;1.90;;;1.37;;
37483;SDS011;23337;52.212;9.926;2022-09-12T14:51:30;2.17;;;1.17;;
37483;SDS011;23337;52.212;9.926;2022-09-12T14:53:57;0.90;;;0.90;;
37483;SDS011;23337;52.212;9.926;2022-09-12T14:56:43;1.60;;;1.10;;
37483;SDS011;23337;52.212;9.926;2022-09-12T15:04:49;1.37;;;1.00;;
37483;SDS011;23337;52.212;9.926;2022-09-12T15:07:20;1.73;;;0.80;;
37483;SDS011;23337;52.212;9.926;2022-09-12T15:09:49;1.20;;;1.00;;
37483;SDS011;23337;52.212;9.926;2022-09-12T15:12:16;1.20;;;1.10;;
37483;SDS011;23337;52.212;9.926;2022-09-12T15:14:42;2.30;;;1.10;;
37483;SDS011;23337;52.212;9.926;2022-09-12T15:17:08;1.73;;;0.80;;
37483;SDS011;23337;52.212;9.926;2022-09-12T15:19:33;1.57;;;1.10;;
37483;SDS011;23337;52.212;9.926;2022-09-12T15:21:59;1.13;;;1.00;;
37483;SDS011;23337;52.212;9.926;2022-09-12T15:24:25;1.00;;;0.60;;
37483;SDS011;23337;52.212;9.926;2022-09-12T15:26:51;1.70;;;1.07;;
37483;SDS011;23337;52.212;9.926;2022-09-12T15:29:17;1.47;;;1.00;;
37483;SDS011;23337;52.212;9.926;2022-09-12T15:31:45;1.30;;;1.00;;
37483;SDS011;23337;52.212;9.926;2022-09-12T15:34:11;0.97;;;0.93;;
37483;SDS011;23337;52.212;9.926;2022-09-12T15:36:37;1.83;;;1.00;;
37483;SDS011;23337;52.212;9.926;2022-09-12T15:39:03;1.23;;;0.80;;
37483;SDS011;23337;52.212;9.926;2022-09-12T15:41:30;2.97;;;0.97;;
37483;SDS011;23337;52.212;9.926;2022-09-12T15:43:57;1.37;;;1.10;;
37483;SDS011;23337;52.212;9.926;2022-09-12T15:46:23;2.30;;;0.90;;
37483;SDS011;23337;52.212;9.926;2022-09-12T15:48:49;2.67;;;0.87;;
37483;SDS011;23337;52.212;9.926;2022-09-12T15:51:16;0.87;;;0.87;;
37483;SDS011;23337;52.212;9.926;2022-09-12T15:53:42;2.40;;;1.10;;
37483;SDS011;23337;52.212;9.926;2022-09-12T15:56:08;1.10;;;1.00;;
37483;SDS011;23337;52.212;9.926;2022-09-12T15:58:35;0.80;;;0.80;;
37483;SDS011;23337;52.212;9.926;2022-09-12T16:01:02;1.57;;;1.00;;
37483;SDS011;23337;52.212;9.926;2022-09-12T16:03:28;1.13;;;1.00;;
37483;SDS011;23337;52.212;9.926;2022-09-12T16:05:59;2.10;;;0.90;;
37483;SDS011;23337;52.212;9.926;2022-09-12T16:08:26;2.30;;;1.20;;
37483;SDS011;23337;52.212;9.926;2022-09-12T16:10:53;1.83;;;1.40;;
37483;SDS011;23337;52.212;9.926;2022-09-12T16:13:20;1.17;;;1.07;;
37483;SDS011;23337;52.212;9.926;2022-09-12T16:15:46;1.50;;;1.20;;
37483;SDS011;23337;52.212;9.926;2022-09-12T16:18:12;1.60;;;0.97;;
37483;SDS011;23337;52.212;9.926;2022-09-12T16:20:38;1.63;;;1.53;;
37483;SDS011;23337;52.212;9.926;2022-09-12T16:23:05;3.10;;;1.60;;
37483;SDS011;23337;52.212;9.926;2022-09-12T16:25:31;2.30;;;1.30;;
37483;SDS011;23337;52.212;9.926;2022-09-12T16:27:58;2.07;;;1.20;;
37483;SDS011;23337;52.212;9.926;2022-09-12T16:30:25;1.80;;;1.00;;
37483;SDS011;23337;52.212;9.926;2022-09-12T16:32:51;1.40;;;1.30;;
37483;SDS011;23337;52.212;9.926;2022-09-12T16:35:17;1.13;;;1.03;;
37483;SDS011;23337;52.212;9.926;2022-09-12T16:37:43;1.70;;;1.30;;
37483;SDS011;23337;52.212;9.926;2022-09-12T16:40:09;1.70;;;1.10;;
37483;SDS011;23337;52.212;9.926;2022-09-12T16:42:35;1.30;;;1.20;;
37483;SDS011;23337;52.212;9.926;2022-09-12T16:45:02;1.53;;;1.37;;
37483;SDS011;23337;52.212;9.926;2022-09-12T16:47:28;2.40;;;1.10;;
37483;SDS011;23337;52.212;9.926;2022-09-12T16:49:56;2.20;;;1.37;;
37483;SDS011;23337;52.212;9.926;2022-09-12T16:52:23;1.50;;;1.40;;
37483;SDS011;23337;52.212;9.926;2022-09-12T16:54:49;1.40;;;1.30;;
37483;SDS011;23337;52.212;9.926;2022-09-12T16:57:15;1.20;;;1.10;;
37483;SDS011;23337;52.212;9.926;2022-09-12T16:59:41;1.60;;;1.50;;
37483;SDS011;23337;52.212;9.926;2022-09-12T17:02:09;3.00;;;2.17;;
37483;SDS011;23337;52.212;9.926;2022-09-12T17:04:35;1.67;;;1.43;;
37483;SDS011;23337;52.212;9.926;2022-09-12T17:07:01;1.50;;;1.40;;
37483;SDS011;23337;52.212;9.926;2022-09-12T17:09:27;1.50;;;1.13;;
37483;SDS011;23337;52.212;9.926;2022-09-12T17:11:54;2.13;;;1.53;;
37483;SDS011;23337;52.212;9.926;2022-09-12T17:14:20;2.17;;;1.63;;
37483;SDS011;23337;52.212;9.926;2022-09-12T17:16:46;1.83;;;1.23;;
37483;SDS011;23337;52.212;9.926;2022-09-12T17:19:14;4.10;;;1.43;;
37483;SDS011;23337;52.212;9.926;2022-09-12T17:21:41;4.13;;;1.83;;
37483;SDS011;23337;52.212;9.926;2022-09-12T17:24:07;13.70;;;2.53;;